sensor_id;sensor_type;location;lat;lon;timestamp;temperature;humidity
25300;DHT22;13241;51.208;4.432;2022-10-22T00:00:46;15.40;99.90
25300;DHT22;13241;51.208;4.432;2022-10-22T00:03:13;15.40;99.90
25300;DHT22;13241;51.208;4.432;2022-10-22T00:05:40;15.40;99.90
25300;DHT22;13241;51.208;4.432;2022-10-22T00:08:07;15.30;99.90
25300;DHT22;13241;51.208;4.432;2022-10-22T00:10:37;15.30;99.90
25300;DHT22;13241;51.208;4.432;2022-10-22T00:13:04;15.40;99.90
25300;DHT22;13241;51.208;4.432;2022-10-22T00:15:32;15.40;99.90
25300;DHT22;13241;51.208;4.432;2022-10-22T00:17:59;15.50;99.90
25300;DHT22;13241;51.208;4.432;2022-10-22T00:20:26;15.40;99.90
25300;DHT22;13241;51.208;4.432;2022-10-22T00:22:55;15.50;99.90
25300;DHT22;13241;51.208;4.432;2022-10-22T00:25:22;15.50;99.90
25300;DHT22;13241;51.208;4.432;2022-10-22T00:27:49;15.40;99.90
25300;DHT22;13241;51.208;4.432;2022-10-22T00:30:16;15.40;99.90
25300;DHT22;13241;51.208;4.432;2022-10-22T00:32:43;15.50;99.90
25300;DHT22;13241;51.208;4.432;2022-10-22T00:35:10;15.40;99.90
25300;DHT22;13241;51.208;4.432;2022-10-22T00:37:37;15.50;99.90
25300;DHT22;13241;51.208;4.432;2022-10-22T00:40:04;15.50;99.90
25300;DHT22;13241;51.208;4.432;2022-10-22T00:42:31;15.50;99.90
25300;DHT22;13241;51.208;4.432;2022-10-22T00:50:46;15.50;99.90
25300;DHT22;13241;51.208;4.432;2022-10-22T00:53:18;15.60;99.90
25300;DHT22;13241;51.208;4.432;2022-10-22T00:55:47;15.50;99.90
25300;DHT22;13241;51.208;4.432;2022-10-22T00:58:16;15.50;99.90
25300;DHT22;13241;51.208;4.432;2022-10-22T01:00:43;15.50;99.90
25300;DHT22;13241;51.208;4.432;2022-10-22T01:03:10;15.70;99.90
25300;DHT22;13241;51.208;4.432;2022-10-22T01:05:53;15.50;99.90
25300;DHT22;13241;51.208;4.432;2022-10-22T01:09:49;15.50;99.90
25300;DHT22;13241;51.208;4.432;2022-10-22T01:14:58;15.40;99.90
25300;DHT22;13241;51.208;4.432;2022-10-22T01:17:39;15.40;99.90
25300;DHT22;13241;51.208;4.432;2022-10-22T01:20:26;15.40;99.90
25300;DHT22;13241;51.208;4.432;2022-10-22T01:23:26;15.50;99.90
25300;DHT22;13241;51.208;4.432;2022-10-22T01:26:05;15.50;99.90
25300;DHT22;13241;51.208;4.432;2022-10-22T01:29:03;15.40;99.90
25300;DHT22;13241;51.208;4.432;2022-10-22T01:31:37;15.40;99.90
25300;DHT22;13241;51.208;4.432;2022-10-22T01:34:07;15.30;99.90
25300;DHT22;13241;51.208;4.432;2022-10-22T01:36:37;15.30;99.90
25300;DHT22;13241;51.208;4.432;2022-10-22T01:39:06;15.20;99.90
25300;DHT22;13241;51.208;4.432;2022-10-22T01:41:34;15.40;99.90
25300;DHT22;13241;51.208;4.432;2022-10-22T01:44:01;15.10;99.90
25300;DHT22;13241;51.208;4.432;2022-10-22T01:46:28;15.20;99.90
25300;DHT22;13241;51.208;4.432;2022-10-22T01:49:52;15.20;99.90
25300;DHT22;13241;51.208;4.432;2022-10-22T01:55:21;15.20;99.90
25300;DHT22;13241;51.208;4.432;2022-10-22T02:00:45;15.10;99.90
25300;DHT22;13241;51.208;4.432;2022-10-22T02:03:18;15.10;99.90
25300;DHT22;13241;51.208;4.432;2022-10-22T02:05:56;15.10;99.90
25300;DHT22;13241;51.208;4.432;2022-10-22T02:08:28;15.10;99.90
25300;DHT22;13241;51.208;4.432;2022-10-22T02:11:00;15.20;99.90
25300;DHT22;13241;51.208;4.432;2022-10-22T02:13:39;15.10;99.90
25300;DHT22;13241;51.208;4.432;2022-10-22T02:16:09;15.00;99.90
25300;DHT22;13241;51.208;4.432;2022-10-22T02:18:41;15.00;99.90
25300;DHT22;13241;51.208;4.432;2022-10-22T02:21:09;15.00;99.90
25300;DHT22;13241;51.208;4.432;2022-10-22T02:23:36;15.00;99.90
25300;DHT22;13241;51.208;4.432;2022-10-22T02:26:31;15.10;99.90
25300;DHT22;13241;51.208;4.432;2022-10-22T02:29:13;15.20;99.90
25300;DHT22;13241;51.208;4.432;2022-10-22T02:31:43;15.20;99.90
25300;DHT22;13241;51.208;4.432;2022-10-22T02:34:17;15.20;99.90
25300;DHT22;13241;51.208;4.432;2022-10-22T02:36:46;15.10;99.90
25300;DHT22;13241;51.208;4.432;2022-10-22T02:39:16;15.10;99.90
25300;DHT22;13241;51.208;4.432;2022-10-22T02:41:44;15.00;99.90
25300;DHT22;13241;51.208;4.432;2022-10-22T02:44:12;15.10;99.90
25300;DHT22;13241;51.208;4.432;2022-10-22T02:46:39;15.00;99.90
25300;DHT22;13241;51.208;4.432;2022-10-22T02:49:06;15.00;99.90
25300;DHT22;13241;51.208;4.432;2022-10-22T02:51:33;15.00;99.90
25300;DHT22;13241;51.208;4.432;2022-10-22T02:54:00;15.00;99.90
25300;DHT22;13241;51.208;4.432;2022-10-22T02:56:27;15.10;99.90
25300;DHT22;13241;51.208;4.432;2022-10-22T02:58:55;15.10;99.90
25300;DHT22;13241;51.208;4.432;2022-10-22T03:01:22;15.10;99.90
25300;DHT22;13241;51.208;4.432;2022-10-22T03:03:49;15.10;99.90
25300;DHT22;13241;51.208;4.432;2022-10-22T03:06:16;15.10;99.90
25300;DHT22;13241;51.208;4.432;2022-10-22T03:08:43;15.00;99.90
25300;DHT22;13241;51.208;4.432;2022-10-22T03:11:10;15.00;99.90
25300;DHT22;13241;51.208;4.432;2022-10-22T03:13:38;15.00;99.90
25300;DHT22;13241;51.208;4.432;2022-10-22T03:16:05;14.90;99.90
25300;DHT22;13241;51.208;4.432;2022-10-22T03:18:33;15.00;99.90
25300;DHT22;13241;51.208;4.432;2022-10-22T03:21:08;14.90;99.90
25300;DHT22;13241;51.208;4.432;2022-10-22T03:23:37;15.00;99.90
25300;DHT22;13241;51.208;4.432;2022-10-22T03:26:05;15.00;99.90
25300;DHT22;13241;51.208;4.432;2022-10-22T03:28:34;15.00;99.90
25300;DHT22;13241;51.208;4.432;2022-10-22T03:31:01;15.20;99.90
25300;DHT22;13241;51.208;4.432;2022-10-22T03:33:29;15.10;99.90
25300;DHT22;13241;51.208;4.432;2022-10-22T03:35:56;15.10;99.90
25300;DHT22;13241;51.208;4.432;2022-10-22T03:38:23;15.10;99.90
25300;DHT22;13241;51.208;4.432;2022-10-22T03:45:07;15.20;99.90
25300;DHT22;13241;51.208;4.432;2022-10-22T03:47:34;15.30;99.90
25300;DHT22;13241;51.208;4.432;2022-10-22T03:50:04;15.40;99.90
25300;DHT22;13241;51.208;4.432;2022-10-22T03:52:36;15.30;99.90
25300;DHT22;13241;51.208;4.432;2022-10-22T03:55:05;15.30;99.90
25300;DHT22;13241;51.208;4.432;2022-10-22T03:57:32;15.30;99.90
25300;DHT22;13241;51.208;4.432;2022-10-22T03:59:59;15.30;99.90
25300;DHT22;13241;51.208;4.432;2022-10-22T04:02:26;15.30;99.90
25300;DHT22;13241;51.208;4.432;2022-10-22T04:04:53;15.30;99.90
25300;DHT22;13241;51.208;4.432;2022-10-22T04:07:19;15.20;99.90
25300;DHT22;13241;51.208;4.432;2022-10-22T04:09:51;15.10;99.90
25300;DHT22;13241;51.208;4.432;2022-10-22T04:12:24;15.00;99.90
25300;DHT22;13241;51.208;4.432;2022-10-22T04:14:51;14.90;99.90
25300;DHT22;13241;51.208;4.432;2022-10-22T04:17:20;14.90;99.90
25300;DHT22;13241;51.208;4.432;2022-10-22T04:20:03;14.90;99.90
25300;DHT22;13241;51.208;4.432;2022-10-22T04:22:40;14.90;99.90
25300;DHT22;13241;51.208;4.432;2022-10-22T04:25:10;14.90;99.90
25300;DHT22;13241;51.208;4.432;2022-10-22T04:27:40;14.90;99.90
25300;DHT22;13241;51.208;4.432;2022-10-22T04:30:11;15.00;99.90
25300;DHT22;13241;51.208;4.432;2022-10-22T04:32:38;14.90;99.90
25300;DHT22;13241;51.208;4.432;2022-10-22T04:35:05;15.00;99.90
25300;DHT22;13241;51.208;4.432;2022-10-22T04:37:32;14.90;99.90
25300;DHT22;13241;51.208;4.432;2022-10-22T04:39:59;15.00;99.90
25300;DHT22;13241;51.208;4.432;2022-10-22T04:42:26;14.90;99.90
25300;DHT22;13241;51.208;4.432;2022-10-22T04:44:53;14.90;99.90
25300;DHT22;13241;51.208;4.432;2022-10-22T04:47:20;14.90;99.90
25300;DHT22;13241;51.208;4.432;2022-10-22T04:49:47;15.00;99.90
25300;DHT22;13241;51.208;4.432;2022-10-22T04:52:15;14.90;99.90
25300;DHT22;13241;51.208;4.432;2022-10-22T04:54:42;14.90;99.90
25300;DHT22;13241;51.208;4.432;2022-10-22T04:57:08;14.90;99.90
25300;DHT22;13241;51.208;4.432;2022-10-22T04:59:35;14.90;99.90
25300;DHT22;13241;51.208;4.432;2022-10-22T05:02:02;14.90;99.90
25300;DHT22;13241;51.208;4.432;2022-10-22T05:04:29;14.80;99.90
25300;DHT22;13241;51.208;4.432;2022-10-22T05:06:56;14.80;99.90
25300;DHT22;13241;51.208;4.432;2022-10-22T05:09:23;14.70;99.90
25300;DHT22;13241;51.208;4.432;2022-10-22T05:11:51;14.70;99.90
25300;DHT22;13241;51.208;4.432;2022-10-22T05:14:20;14.70;99.90
25300;DHT22;13241;51.208;4.432;2022-10-22T05:16:48;14.70;99.90
25300;DHT22;13241;51.208;4.432;2022-10-22T05:19:22;14.70;99.90
25300;DHT22;13241;51.208;4.432;2022-10-22T05:21:58;14.60;99.90
25300;DHT22;13241;51.208;4.432;2022-10-22T05:24:31;14.60;99.90
25300;DHT22;13241;51.208;4.432;2022-10-22T05:26:59;14.50;99.90
25300;DHT22;13241;51.208;4.432;2022-10-22T05:29:26;14.50;99.90
25300;DHT22;13241;51.208;4.432;2022-10-22T05:31:53;14.60;99.90
25300;DHT22;13241;51.208;4.432;2022-10-22T05:34:21;14.60;99.90
25300;DHT22;13241;51.208;4.432;2022-10-22T05:36:54;14.50;99.90
25300;DHT22;13241;51.208;4.432;2022-10-22T05:39:21;14.50;99.90
25300;DHT22;13241;51.208;4.432;2022-10-22T05:41:47;14.50;99.90
25300;DHT22;13241;51.208;4.432;2022-10-22T05:44:14;14.50;99.90
25300;DHT22;13241;51.208;4.432;2022-10-22T05:46:41;14.50;99.90
25300;DHT22;13241;51.208;4.432;2022-10-22T05:49:12;14.40;99.90
25300;DHT22;13241;51.208;4.432;2022-10-22T05:51:39;14.40;99.90
25300;DHT22;13241;51.208;4.432;2022-10-22T05:54:07;14.50;99.90
25300;DHT22;13241;51.208;4.432;2022-10-22T05:56:34;14.40;99.90
25300;DHT22;13241;51.208;4.432;2022-10-22T05:59:01;14.40;99.90
25300;DHT22;13241;51.208;4.432;2022-10-22T06:01:31;14.40;99.90
25300;DHT22;13241;51.208;4.432;2022-10-22T06:04:03;14.40;99.90
25300;DHT22;13241;51.208;4.432;2022-10-22T06:09:26;14.50;99.90
25300;DHT22;13241;51.208;4.432;2022-10-22T06:11:55;14.30;99.90
25300;DHT22;13241;51.208;4.432;2022-10-22T06:14:38;14.20;99.90
25300;DHT22;13241;51.208;4.432;2022-10-22T06:17:05;14.40;99.90
25300;DHT22;13241;51.208;4.432;2022-10-22T06:19:32;14.40;99.90
25300;DHT22;13241;51.208;4.432;2022-10-22T06:21:59;14.30;99.90
25300;DHT22;13241;51.208;4.432;2022-10-22T06:24:26;14.40;99.90
25300;DHT22;13241;51.208;4.432;2022-10-22T06:26:53;14.40;99.90
25300;DHT22;13241;51.208;4.432;2022-10-22T06:29:20;14.50;99.90
25300;DHT22;13241;51.208;4.432;2022-10-22T06:31:48;14.50;99.90
25300;DHT22;13241;51.208;4.432;2022-10-22T06:34:17;14.70;99.90
25300;DHT22;13241;51.208;4.432;2022-10-22T06:36:47;15.00;99.90
25300;DHT22;13241;51.208;4.432;2022-10-22T06:39:15;14.90;99.90
25300;DHT22;13241;51.208;4.432;2022-10-22T06:41:42;15.00;99.90
25300;DHT22;13241;51.208;4.432;2022-10-22T06:44:14;15.30;99.90
25300;DHT22;13241;51.208;4.432;2022-10-22T06:46:42;15.10;99.90
25300;DHT22;13241;51.208;4.432;2022-10-22T06:51:54;15.30;99.90
25300;DHT22;13241;51.208;4.432;2022-10-22T06:54:25;15.30;99.90
25300;DHT22;13241;51.208;4.432;2022-10-22T06:56:52;15.20;99.90
25300;DHT22;13241;51.208;4.432;2022-10-22T06:59:22;15.40;99.90
25300;DHT22;13241;51.208;4.432;2022-10-22T07:01:51;15.40;99.90
25300;DHT22;13241;51.208;4.432;2022-10-22T07:04:31;15.50;99.90
25300;DHT22;13241;51.208;4.432;2022-10-22T07:07:08;15.50;99.90
25300;DHT22;13241;51.208;4.432;2022-10-22T07:09:35;15.60;99.90
25300;DHT22;13241;51.208;4.432;2022-10-22T07:12:23;15.60;99.90
25300;DHT22;13241;51.208;4.432;2022-10-22T07:15:08;15.60;99.90
25300;DHT22;13241;51.208;4.432;2022-10-22T07:17:43;15.50;99.90
25300;DHT22;13241;51.208;4.432;2022-10-22T07:26:54;15.30;99.90
25300;DHT22;13241;51.208;4.432;2022-10-22T07:32:35;15.30;99.90
25300;DHT22;13241;51.208;4.432;2022-10-22T07:35:07;15.40;99.90
25300;DHT22;13241;51.208;4.432;2022-10-22T07:40:50;15.50;99.90
25300;DHT22;13241;51.208;4.432;2022-10-22T07:43:24;15.60;99.90
25300;DHT22;13241;51.208;4.432;2022-10-22T07:46:15;15.40;99.90
25300;DHT22;13241;51.208;4.432;2022-10-22T07:52:42;16.00;99.90
25300;DHT22;13241;51.208;4.432;2022-10-22T07:55:25;16.10;99.90
25300;DHT22;13241;51.208;4.432;2022-10-22T07:58:07;16.10;99.90
25300;DHT22;13241;51.208;4.432;2022-10-22T08:01:33;16.10;99.90
25300;DHT22;13241;51.208;4.432;2022-10-22T08:04:23;16.20;99.90
25300;DHT22;13241;51.208;4.432;2022-10-22T08:07:38;16.30;99.90
25300;DHT22;13241;51.208;4.432;2022-10-22T08:13:30;16.70;99.90
25300;DHT22;13241;51.208;4.432;2022-10-22T08:16:36;17.10;99.90
25300;DHT22;13241;51.208;4.432;2022-10-22T08:19:29;17.30;99.90
25300;DHT22;13241;51.208;4.432;2022-10-22T08:22:01;17.20;99.90
25300;DHT22;13241;51.208;4.432;2022-10-22T08:24:28;17.30;99.90
25300;DHT22;13241;51.208;4.432;2022-10-22T08:26:58;17.50;99.90
25300;DHT22;13241;51.208;4.432;2022-10-22T08:29:26;17.70;99.90
25300;DHT22;13241;51.208;4.432;2022-10-22T08:32:08;17.80;99.90
25300;DHT22;13241;51.208;4.432;2022-10-22T08:35:04;17.90;99.90
25300;DHT22;13241;51.208;4.432;2022-10-22T08:37:32;17.80;99.90
25300;DHT22;13241;51.208;4.432;2022-10-22T08:46:46;17.50;99.90
25300;DHT22;13241;51.208;4.432;2022-10-22T08:49:53;17.30;99.90
25300;DHT22;13241;51.208;4.432;2022-10-22T08:53:37;17.30;99.90
25300;DHT22;13241;51.208;4.432;2022-10-22T08:56:40;17.40;99.90
25300;DHT22;13241;51.208;4.432;2022-10-22T09:08:46;17.70;99.90
25300;DHT22;13241;51.208;4.432;2022-10-22T09:28:29;18.40;99.90
25300;DHT22;13241;51.208;4.432;2022-10-22T09:34:04;18.50;99.90
25300;DHT22;13241;51.208;4.432;2022-10-22T09:37:05;18.90;99.90
25300;DHT22;13241;51.208;4.432;2022-10-22T09:40:30;19.20;99.90
25300;DHT22;13241;51.208;4.432;2022-10-22T09:42:57;19.40;99.90
25300;DHT22;13241;51.208;4.432;2022-10-22T09:45:41;19.70;99.90
25300;DHT22;13241;51.208;4.432;2022-10-22T09:48:51;19.80;99.90
25300;DHT22;13241;51.208;4.432;2022-10-22T09:56:09;20.20;99.90
25300;DHT22;13241;51.208;4.432;2022-10-22T09:59:27;20.00;99.90
25300;DHT22;13241;51.208;4.432;2022-10-22T10:06:00;20.40;99.90
25300;DHT22;13241;51.208;4.432;2022-10-22T10:54:43;19.30;99.90
25300;DHT22;13241;51.208;4.432;2022-10-22T11:07:51;20.10;99.90
25300;DHT22;13241;51.208;4.432;2022-10-22T11:10:52;20.30;99.90
25300;DHT22;13241;51.208;4.432;2022-10-22T11:13:48;20.40;99.90
25300;DHT22;13241;51.208;4.432;2022-10-22T11:17:16;20.60;99.90
25300;DHT22;13241;51.208;4.432;2022-10-22T11:26:14;20.20;99.90
25300;DHT22;13241;51.208;4.432;2022-10-22T11:29:05;20.20;99.90
25300;DHT22;13241;51.208;4.432;2022-10-22T11:31:39;20.30;99.90
25300;DHT22;13241;51.208;4.432;2022-10-22T11:37:27;20.10;99.90
25300;DHT22;13241;51.208;4.432;2022-10-22T11:46:55;20.20;99.90
25300;DHT22;13241;51.208;4.432;2022-10-22T11:55:33;21.10;99.90
25300;DHT22;13241;51.208;4.432;2022-10-22T11:58:58;20.90;99.90
25300;DHT22;13241;51.208;4.432;2022-10-22T12:12:03;20.90;99.90
25300;DHT22;13241;51.208;4.432;2022-10-22T12:18:52;20.80;99.90
25300;DHT22;13241;51.208;4.432;2022-10-22T12:32:53;20.60;99.90
25300;DHT22;13241;51.208;4.432;2022-10-22T12:38:58;21.20;99.90
25300;DHT22;13241;51.208;4.432;2022-10-22T13:03:09;21.00;99.90
25300;DHT22;13241;51.208;4.432;2022-10-22T13:06:33;20.80;99.90
25300;DHT22;13241;51.208;4.432;2022-10-22T13:12:38;20.40;99.90
25300;DHT22;13241;51.208;4.432;2022-10-22T13:26:47;20.90;99.90
25300;DHT22;13241;51.208;4.432;2022-10-22T13:33:36;20.70;99.90
25300;DHT22;13241;51.208;4.432;2022-10-22T13:40:15;20.70;99.90
25300;DHT22;13241;51.208;4.432;2022-10-22T13:45:59;21.90;99.90
25300;DHT22;13241;51.208;4.432;2022-10-22T13:48:44;22.20;99.90
25300;DHT22;13241;51.208;4.432;2022-10-22T13:54:29;21.70;99.90
25300;DHT22;13241;51.208;4.432;2022-10-22T13:57:16;21.20;99.90
25300;DHT22;13241;51.208;4.432;2022-10-22T14:02:57;21.60;99.90
25300;DHT22;13241;51.208;4.432;2022-10-22T14:09:14;23.10;99.90
25300;DHT22;13241;51.208;4.432;2022-10-22T14:18:14;22.50;99.90
25300;DHT22;13241;51.208;4.432;2022-10-22T14:24:20;21.20;99.90
25300;DHT22;13241;51.208;4.432;2022-10-22T14:37:19;22.50;99.90
25300;DHT22;13241;51.208;4.432;2022-10-22T14:40:22;22.40;99.90
25300;DHT22;13241;51.208;4.432;2022-10-22T14:42:49;22.10;99.90
25300;DHT22;13241;51.208;4.432;2022-10-22T14:45:22;21.90;99.90
25300;DHT22;13241;51.208;4.432;2022-10-22T14:48:19;22.00;99.90
25300;DHT22;13241;51.208;4.432;2022-10-22T14:57:33;21.50;99.90
25300;DHT22;13241;51.208;4.432;2022-10-22T15:00:05;20.90;99.90
25300;DHT22;13241;51.208;4.432;2022-10-22T15:13:04;19.90;99.90
25300;DHT22;13241;51.208;4.432;2022-10-22T15:15:57;19.80;99.90
25300;DHT22;13241;51.208;4.432;2022-10-22T15:19:41;19.80;99.90
25300;DHT22;13241;51.208;4.432;2022-10-22T15:22:24;19.70;99.90
25300;DHT22;13241;51.208;4.432;2022-10-22T15:25:15;19.70;99.90
25300;DHT22;13241;51.208;4.432;2022-10-22T15:28:00;19.60;99.90
25300;DHT22;13241;51.208;4.432;2022-10-22T15:34:43;19.40;99.90
25300;DHT22;13241;51.208;4.432;2022-10-22T15:37:20;19.30;99.90
25300;DHT22;13241;51.208;4.432;2022-10-22T15:39:57;19.00;99.90
25300;DHT22;13241;51.208;4.432;2022-10-22T15:42:24;19.10;99.90
25300;DHT22;13241;51.208;4.432;2022-10-22T15:48:31;19.00;99.90
25300;DHT22;13241;51.208;4.432;2022-10-22T15:51:23;19.00;99.90
25300;DHT22;13241;51.208;4.432;2022-10-22T15:53:59;18.80;99.90
25300;DHT22;13241;51.208;4.432;2022-10-22T15:56:39;18.90;99.90
25300;DHT22;13241;51.208;4.432;2022-10-22T15:59:20;18.70;99.90
25300;DHT22;13241;51.208;4.432;2022-10-22T16:02:16;18.60;99.90
25300;DHT22;13241;51.208;4.432;2022-10-22T16:04:58;18.60;99.90
25300;DHT22;13241;51.208;4.432;2022-10-22T16:10:46;18.40;99.90
25300;DHT22;13241;51.208;4.432;2022-10-22T16:13:39;18.30;99.90
25300;DHT22;13241;51.208;4.432;2022-10-22T16:16:23;18.30;99.90
25300;DHT22;13241;51.208;4.432;2022-10-22T16:19:37;18.20;99.90
25300;DHT22;13241;51.208;4.432;2022-10-22T16:22:04;18.30;99.90
25300;DHT22;13241;51.208;4.432;2022-10-22T16:24:34;18.00;99.90
25300;DHT22;13241;51.208;4.432;2022-10-22T16:27:29;17.90;99.90
25300;DHT22;13241;51.208;4.432;2022-10-22T16:30:42;17.90;99.90
25300;DHT22;13241;51.208;4.432;2022-10-22T16:33:12;17.70;99.90
25300;DHT22;13241;51.208;4.432;2022-10-22T16:39:30;17.40;99.90
25300;DHT22;13241;51.208;4.432;2022-10-22T16:42:14;17.30;99.90
25300;DHT22;13241;51.208;4.432;2022-10-22T16:44:54;17.20;99.90
25300;DHT22;13241;51.208;4.432;2022-10-22T16:47:37;17.20;99.90
25300;DHT22;13241;51.208;4.432;2022-10-22T16:50:52;17.30;99.90
25300;DHT22;13241;51.208;4.432;2022-10-22T16:53:18;17.40;99.90
25300;DHT22;13241;51.208;4.432;2022-10-22T16:56:14;17.40;99.90
25300;DHT22;13241;51.208;4.432;2022-10-22T16:59:29;17.40;99.90
25300;DHT22;13241;51.208;4.432;2022-10-22T17:05:41;17.40;99.90
25300;DHT22;13241;51.208;4.432;2022-10-22T17:08:09;17.30;99.90
25300;DHT22;13241;51.208;4.432;2022-10-22T17:20:41;16.90;99.90
25300;DHT22;13241;51.208;4.432;2022-10-22T17:23:15;16.80;99.90
25300;DHT22;13241;51.208;4.432;2022-10-22T17:25:44;16.70;99.90
25300;DHT22;13241;51.208;4.432;2022-10-22T17:28:44;16.70;99.90
25300;DHT22;13241;51.208;4.432;2022-10-22T17:34:30;16.70;99.90
25300;DHT22;13241;51.208;4.432;2022-10-22T17:37:01;16.70;99.90
25300;DHT22;13241;51.208;4.432;2022-10-22T17:40:08;16.80;99.90
25300;DHT22;13241;51.208;4.432;2022-10-22T17:45:45;16.70;99.90
25300;DHT22;13241;51.208;4.432;2022-10-22T17:48:12;16.60;99.90
25300;DHT22;13241;51.208;4.432;2022-10-22T17:53:46;16.50;99.90
25300;DHT22;13241;51.208;4.432;2022-10-22T17:56:42;16.40;99.90
25300;DHT22;13241;51.208;4.432;2022-10-22T17:59:24;16.20;99.90
25300;DHT22;13241;51.208;4.432;2022-10-22T18:02:39;16.30;99.90
25300;DHT22;13241;51.208;4.432;2022-10-22T18:05:32;16.30;99.90
25300;DHT22;13241;51.208;4.432;2022-10-22T18:08:03;16.30;99.90
25300;DHT22;13241;51.208;4.432;2022-10-22T18:11:36;16.30;99.90
25300;DHT22;13241;51.208;4.432;2022-10-22T18:14:12;16.20;99.90
25300;DHT22;13241;51.208;4.432;2022-10-22T18:16:59;16.20;99.90
25300;DHT22;13241;51.208;4.432;2022-10-22T18:19:54;16.20;99.90
25300;DHT22;13241;51.208;4.432;2022-10-22T18:22:53;16.10;99.90
25300;DHT22;13241;51.208;4.432;2022-10-22T18:25:58;16.10;99.90
25300;DHT22;13241;51.208;4.432;2022-10-22T18:28:37;16.10;99.90
25300;DHT22;13241;51.208;4.432;2022-10-22T18:31:16;16.10;99.90
25300;DHT22;13241;51.208;4.432;2022-10-22T18:34:02;16.10;99.90
25300;DHT22;13241;51.208;4.432;2022-10-22T18:39:40;16.10;99.90
25300;DHT22;13241;51.208;4.432;2022-10-22T18:42:07;16.00;99.90
25300;DHT22;13241;51.208;4.432;2022-10-22T18:44:36;16.00;99.90
25300;DHT22;13241;51.208;4.432;2022-10-22T18:47:10;15.80;99.90
25300;DHT22;13241;51.208;4.432;2022-10-22T18:50:00;16.10;99.90
25300;DHT22;13241;51.208;4.432;2022-10-22T18:52:29;15.90;99.90
25300;DHT22;13241;51.208;4.432;2022-10-22T18:55:02;16.10;99.90
25300;DHT22;13241;51.208;4.432;2022-10-22T18:57:30;15.90;99.90
25300;DHT22;13241;51.208;4.432;2022-10-22T19:03:51;15.90;99.90
25300;DHT22;13241;51.208;4.432;2022-10-22T19:06:45;16.00;99.90
25300;DHT22;13241;51.208;4.432;2022-10-22T19:09:32;16.00;99.90
25300;DHT22;13241;51.208;4.432;2022-10-22T19:12:00;15.90;99.90
25300;DHT22;13241;51.208;4.432;2022-10-22T19:14:33;15.90;99.90
25300;DHT22;13241;51.208;4.432;2022-10-22T19:17:12;15.90;99.90
25300;DHT22;13241;51.208;4.432;2022-10-22T19:19:50;15.90;99.90
25300;DHT22;13241;51.208;4.432;2022-10-22T19:22:18;15.90;99.90
25300;DHT22;13241;51.208;4.432;2022-10-22T19:31:26;15.90;99.90
25300;DHT22;13241;51.208;4.432;2022-10-22T19:34:15;15.90;99.90
25300;DHT22;13241;51.208;4.432;2022-10-22T19:36:43;15.80;99.90
25300;DHT22;13241;51.208;4.432;2022-10-22T19:39:10;15.80;99.90
25300;DHT22;13241;51.208;4.432;2022-10-22T19:42:05;15.70;99.90
25300;DHT22;13241;51.208;4.432;2022-10-22T19:47:53;15.70;99.90
25300;DHT22;13241;51.208;4.432;2022-10-22T19:50:20;15.70;99.90
25300;DHT22;13241;51.208;4.432;2022-10-22T19:52:49;15.70;99.90
25300;DHT22;13241;51.208;4.432;2022-10-22T19:55:23;15.60;99.90
25300;DHT22;13241;51.208;4.432;2022-10-22T20:00:38;15.80;99.90
25300;DHT22;13241;51.208;4.432;2022-10-22T20:03:31;15.90;99.90
25300;DHT22;13241;51.208;4.432;2022-10-22T20:06:03;15.70;99.90
25300;DHT22;13241;51.208;4.432;2022-10-22T20:12:27;15.80;99.90
25300;DHT22;13241;51.208;4.432;2022-10-22T20:15:11;15.70;99.90
25300;DHT22;13241;51.208;4.432;2022-10-22T20:20:56;15.70;99.90
25300;DHT22;13241;51.208;4.432;2022-10-22T20:23:23;15.60;99.90
25300;DHT22;13241;51.208;4.432;2022-10-22T20:25:50;15.60;99.90
25300;DHT22;13241;51.208;4.432;2022-10-22T20:28:48;15.60;99.90
25300;DHT22;13241;51.208;4.432;2022-10-22T20:31:17;15.50;99.90
25300;DHT22;13241;51.208;4.432;2022-10-22T20:33:46;15.50;99.90
25300;DHT22;13241;51.208;4.432;2022-10-22T20:36:20;15.50;99.90
25300;DHT22;13241;51.208;4.432;2022-10-22T20:38:49;15.50;99.90
25300;DHT22;13241;51.208;4.432;2022-10-22T20:41:22;15.50;99.90
25300;DHT22;13241;51.208;4.432;2022-10-22T20:50:41;15.60;99.90
25300;DHT22;13241;51.208;4.432;2022-10-22T20:53:09;15.50;99.90
25300;DHT22;13241;51.208;4.432;2022-10-22T20:56:14;15.60;99.90
25300;DHT22;13241;51.208;4.432;2022-10-22T20:58:42;15.60;99.90
25300;DHT22;13241;51.208;4.432;2022-10-22T21:01:16;15.50;99.90
25300;DHT22;13241;51.208;4.432;2022-10-22T21:03:51;15.60;99.90
25300;DHT22;13241;51.208;4.432;2022-10-22T21:06:20;15.60;99.90
25300;DHT22;13241;51.208;4.432;2022-10-22T21:08:49;15.60;99.90
25300;DHT22;13241;51.208;4.432;2022-10-22T21:11:19;15.50;99.90
25300;DHT22;13241;51.208;4.432;2022-10-22T21:13:47;15.50;99.90
25300;DHT22;13241;51.208;4.432;2022-10-22T21:16:22;15.50;99.90
25300;DHT22;13241;51.208;4.432;2022-10-22T21:18:55;15.50;99.90
25300;DHT22;13241;51.208;4.432;2022-10-22T21:21:22;15.40;99.90
25300;DHT22;13241;51.208;4.432;2022-10-22T21:23:50;15.50;99.90
25300;DHT22;13241;51.208;4.432;2022-10-22T21:26:18;15.50;99.90
25300;DHT22;13241;51.208;4.432;2022-10-22T21:28:45;15.50;99.90
25300;DHT22;13241;51.208;4.432;2022-10-22T21:31:13;15.40;99.90
25300;DHT22;13241;51.208;4.432;2022-10-22T21:33:48;15.50;99.90
25300;DHT22;13241;51.208;4.432;2022-10-22T21:36:17;15.40;99.90
25300;DHT22;13241;51.208;4.432;2022-10-22T21:38:50;15.40;99.90
25300;DHT22;13241;51.208;4.432;2022-10-22T21:41:21;15.40;99.90
25300;DHT22;13241;51.208;4.432;2022-10-22T21:43:49;15.30;99.90
25300;DHT22;13241;51.208;4.432;2022-10-22T21:46:18;15.30;99.90
25300;DHT22;13241;51.208;4.432;2022-10-22T21:48:51;15.20;99.90
25300;DHT22;13241;51.208;4.432;2022-10-22T21:51:19;15.20;99.90
25300;DHT22;13241;51.208;4.432;2022-10-22T21:53:49;15.20;99.90
25300;DHT22;13241;51.208;4.432;2022-10-22T21:56:31;15.20;99.90
25300;DHT22;13241;51.208;4.432;2022-10-22T21:59:04;15.20;99.90
25300;DHT22;13241;51.208;4.432;2022-10-22T22:01:31;15.20;99.90
25300;DHT22;13241;51.208;4.432;2022-10-22T22:03:59;15.20;99.90
25300;DHT22;13241;51.208;4.432;2022-10-22T22:06:27;15.10;99.90
25300;DHT22;13241;51.208;4.432;2022-10-22T22:08:58;15.00;99.90
25300;DHT22;13241;51.208;4.432;2022-10-22T22:11:27;15.10;99.90
25300;DHT22;13241;51.208;4.432;2022-10-22T22:14:02;15.00;99.90
25300;DHT22;13241;51.208;4.432;2022-10-22T22:16:31;14.90;99.90
25300;DHT22;13241;51.208;4.432;2022-10-22T22:19:04;15.00;99.90
25300;DHT22;13241;51.208;4.432;2022-10-22T22:21:32;15.00;99.90
25300;DHT22;13241;51.208;4.432;2022-10-22T22:23:59;15.00;99.90
25300;DHT22;13241;51.208;4.432;2022-10-22T22:26:27;14.80;99.90
25300;DHT22;13241;51.208;4.432;2022-10-22T22:28:57;14.80;99.90
25300;DHT22;13241;51.208;4.432;2022-10-22T22:31:27;14.80;99.90